NK04 weather

Shepard Airport
Constantia, New York, United States

Public forecast

Using degrees Fahrenheit for public forecast. Weather courtesy of forecast.io.

Closest aviation weather report (METAR) to Shepard Airport

Closest report is Syracuse Hancock International Airport, 9.6 nm (17.7 km) SSW. Retrieved 2019/12/13 06:54 UTC (33 minutes ago):

KSYR 130654Z 19011G21KT 10SM OVC200 01/M13 A3036 RMK AO2 SLP282 T00061133

Closest aviation forecast (TAF) to Shepard Airport

Closest forecast is Syracuse Hancock International Airport, 9.6 nm (17.7 km) SSW. Retrieved 2019/12/13 06:30 UTC (57 minutes ago):

TAF KSYR 130529Z 1306/1406 16010KT P6SM BKN200 WS020/19040KT FM131500 15008KT P6SM SCT250 FM132100 12006KT P6SM BKN050 FM132300 12007KT P6SM OVC025 FM140300 12007KT 6SM -RA BR OVC017